createdAt,value
2023-09-11T00:00:36.416Z,3.40
2023-09-11T00:03:23.569Z,3.50
2023-09-11T00:06:03.876Z,3.30
2023-09-11T00:08:32.135Z,3.15
2023-09-11T00:10:59.754Z,2.72
2023-09-11T00:13:27.692Z,2.78
2023-09-11T00:15:54.936Z,2.80
2023-09-11T00:18:21.924Z,2.95
2023-09-11T00:20:49.311Z,2.95
2023-09-11T00:23:16.424Z,2.97
2023-09-11T00:25:44.355Z,3.00
2023-09-11T00:28:11.342Z,2.92
2023-09-11T00:30:38.968Z,2.63
2023-09-11T00:33:06.620Z,2.67
2023-09-11T00:35:34.367Z,3.20
2023-09-11T00:38:01.400Z,2.67
2023-09-11T00:40:28.682Z,2.67
2023-09-11T00:42:55.632Z,2.90
2023-09-11T00:45:22.873Z,3.45
2023-09-11T00:47:50.648Z,2.80
2023-09-11T00:50:21.248Z,3.28
2023-09-11T00:52:48.756Z,2.70
2023-09-11T00:55:16.034Z,2.80
2023-09-11T00:57:43.789Z,2.90
2023-09-11T01:00:11.548Z,2.92
2023-09-11T01:02:38.815Z,3.00
2023-09-11T01:05:09.721Z,3.00
2023-09-11T01:07:36.985Z,3.05
2023-09-11T01:10:07.606Z,3.15
2023-09-11T01:12:38.521Z,2.83
2023-09-11T01:15:06.986Z,2.90
2023-09-11T01:17:39.921Z,3.13
2023-09-11T01:20:33.859Z,2.85
2023-09-11T01:23:38.150Z,2.88
2023-09-11T01:26:12.444Z,3.33
2023-09-11T01:28:45.395Z,2.80
2023-09-11T01:31:13.751Z,3.03
2023-09-11T01:33:40.814Z,2.88
2023-09-11T01:36:08.639Z,3.05
2023-09-11T01:38:35.650Z,3.10
2023-09-11T01:41:05.383Z,3.10
2023-09-11T01:43:37.103Z,3.00
2023-09-11T01:46:05.795Z,2.67
2023-09-11T01:48:33.455Z,3.13
2023-09-11T01:51:00.992Z,2.83
2023-09-11T01:53:28.183Z,3.15
2023-09-11T01:55:56.766Z,2.83
2023-09-11T01:58:23.933Z,3.13
2023-09-11T02:00:51.133Z,2.97
2023-09-11T02:03:18.202Z,2.50
2023-09-11T02:05:45.623Z,2.67
2023-09-11T02:08:12.590Z,3.20
2023-09-11T02:10:39.952Z,3.15
2023-09-11T02:13:06.846Z,2.92
2023-09-11T02:15:34.347Z,3.10
2023-09-11T02:18:01.395Z,2.75
2023-09-11T02:20:28.966Z,3.00
2023-09-11T02:22:55.898Z,2.85
2023-09-11T02:25:23.172Z,2.58
2023-09-11T02:27:50.165Z,3.40
2023-09-11T02:30:17.634Z,2.97
2023-09-11T02:32:45.181Z,2.70
2023-09-11T02:35:13.042Z,2.92
2023-09-11T02:37:43.145Z,2.85
2023-09-11T02:40:11.558Z,2.95
2023-09-11T02:42:39.702Z,2.90
2023-09-11T02:45:07.505Z,2.88
2023-09-11T02:47:34.499Z,2.92
2023-09-11T02:50:02.185Z,2.80
2023-09-11T02:52:29.127Z,2.90
2023-09-11T02:54:56.423Z,2.83
2023-09-11T02:57:23.375Z,2.97
2023-09-11T02:59:55.367Z,3.13
2023-09-11T03:02:25.435Z,3.28
2023-09-11T03:04:52.977Z,3.05
2023-09-11T03:07:20.025Z,3.10
2023-09-11T03:09:47.420Z,3.10
2023-09-11T03:12:14.606Z,3.00
2023-09-11T03:14:42.027Z,3.20
2023-09-11T03:17:10.962Z,2.70
2023-09-11T03:19:38.257Z,3.35
2023-09-11T03:22:05.588Z,3.10
2023-09-11T03:24:32.837Z,2.97
2023-09-11T03:26:59.883Z,3.53
2023-09-11T03:29:27.156Z,3.78
2023-09-11T03:31:54.069Z,3.28
2023-09-11T03:34:21.476Z,3.50
2023-09-11T03:36:48.683Z,3.45
2023-09-11T03:39:16.043Z,3.33
2023-09-11T03:41:43.249Z,3.53
2023-09-11T03:44:10.794Z,3.70
2023-09-11T03:46:38.128Z,3.63
2023-09-11T03:49:05.553Z,3.70
2023-09-11T03:51:32.680Z,3.50
2023-09-11T03:54:00.124Z,3.60
2023-09-11T03:56:28.634Z,3.78
2023-09-11T03:58:56.136Z,3.60
2023-09-11T04:01:23.188Z,4.30
2023-09-11T04:03:50.561Z,4.13
2023-09-11T04:06:17.620Z,3.47
2023-09-11T04:08:45.075Z,3.55
2023-09-11T04:11:12.146Z,3.50
2023-09-11T04:13:39.621Z,3.67
2023-09-11T04:16:06.688Z,3.83
2023-09-11T04:18:34.228Z,3.85
2023-09-11T04:21:04.814Z,3.40
2023-09-11T04:23:33.979Z,3.83
2023-09-11T04:26:01.518Z,3.90
2023-09-11T04:28:28.913Z,4.20
2023-09-11T04:30:56.084Z,3.70
2023-09-11T04:33:23.530Z,3.45
2023-09-11T04:35:52.764Z,3.88
2023-09-11T04:38:20.742Z,3.60
2023-09-11T04:40:47.638Z,3.60
2023-09-11T04:43:15.024Z,4.15
2023-09-11T04:45:42.056Z,4.03
2023-09-11T04:48:09.424Z,4.32
2023-09-11T04:50:36.727Z,3.95
2023-09-11T04:53:04.982Z,3.80
2023-09-11T04:55:33.121Z,4.20
2023-09-11T04:58:00.418Z,4.15
2023-09-11T05:00:27.603Z,4.13
2023-09-11T05:02:55.297Z,4.20
2023-09-11T05:05:22.472Z,4.57
2023-09-11T05:07:49.695Z,4.00
2023-09-11T05:10:16.738Z,4.30
2023-09-11T05:12:44.337Z,4.55
2023-09-11T05:15:12.056Z,3.88
2023-09-11T05:17:39.311Z,4.22
2023-09-11T05:20:07.693Z,4.88
2023-09-11T05:22:35.580Z,4.75
2023-09-11T05:25:02.550Z,3.90
2023-09-11T05:27:30.007Z,4.30
2023-09-11T05:29:56.998Z,4.20
2023-09-11T05:32:24.713Z,4.70
2023-09-11T05:34:52.708Z,4.45
2023-09-11T05:37:20.110Z,4.63
2023-09-11T05:39:47.727Z,5.05
2023-09-11T05:42:14.983Z,4.30
2023-09-11T05:44:41.939Z,4.68
2023-09-11T05:47:10.234Z,4.72
2023-09-11T05:49:37.203Z,4.88
2023-09-11T05:52:04.981Z,4.75
2023-09-11T05:54:32.018Z,5.30
2023-09-11T05:56:59.352Z,4.72
2023-09-11T05:59:26.380Z,4.63
2023-09-11T06:01:53.670Z,4.68
2023-09-11T06:04:20.658Z,4.93
2023-09-11T06:06:47.904Z,4.63
2023-09-11T06:09:14.928Z,4.95
2023-09-11T06:11:42.321Z,5.22
2023-09-11T06:14:09.462Z,4.20
2023-09-11T06:16:36.809Z,5.30
2023-09-11T06:19:04.036Z,4.82
2023-09-11T06:21:31.481Z,4.03
2023-09-11T06:23:58.435Z,4.93
2023-09-11T06:26:25.716Z,5.20
2023-09-11T06:28:52.812Z,4.55
2023-09-11T06:31:20.906Z,4.50
2023-09-11T06:33:48.063Z,4.80
2023-09-11T06:36:15.356Z,4.85
2023-09-11T06:38:42.651Z,5.50
2023-09-11T06:41:10.366Z,4.88
2023-09-11T06:43:38.319Z,4.70
2023-09-11T06:46:05.861Z,5.30
2023-09-11T06:48:32.878Z,4.95
2023-09-11T06:51:00.222Z,4.70
2023-09-11T06:53:27.263Z,5.15
2023-09-11T06:55:54.748Z,5.10
2023-09-11T06:58:21.973Z,5.15
2023-09-11T07:00:49.288Z,5.07
2023-09-11T07:03:18.578Z,4.82
2023-09-11T07:05:47.086Z,4.65
2023-09-11T07:08:14.075Z,4.97
2023-09-11T07:10:42.061Z,4.63
2023-09-11T07:13:09.457Z,4.93
2023-09-11T07:15:36.779Z,4.85
2023-09-11T07:18:04.072Z,4.55
2023-09-11T07:20:31.473Z,4.82
2023-09-11T07:22:58.571Z,4.72
2023-09-11T07:25:25.883Z,5.25
2023-09-11T07:27:55.855Z,4.90
2023-09-11T07:30:23.238Z,4.57
2023-09-11T07:32:53.579Z,5.07
2023-09-11T07:35:21.115Z,4.38
2023-09-11T07:37:49.627Z,4.35
2023-09-11T07:40:17.345Z,4.70
2023-09-11T07:42:44.444Z,4.82
2023-09-11T07:45:11.672Z,4.53
2023-09-11T07:47:38.833Z,4.82
2023-09-11T07:50:06.703Z,4.50
2023-09-11T07:52:33.605Z,4.40
2023-09-11T07:55:00.805Z,4.40
2023-09-11T07:57:27.891Z,4.00
2023-09-11T07:59:55.156Z,4.03
2023-09-11T08:02:22.736Z,4.40
2023-09-11T08:04:49.960Z,4.70
2023-09-11T08:07:17.060Z,3.97
2023-09-11T08:09:44.357Z,4.03
2023-09-11T08:12:11.304Z,4.18
2023-09-11T08:14:38.941Z,4.78
2023-09-11T08:17:05.863Z,4.60
2023-09-11T08:19:33.182Z,4.53
2023-09-11T08:22:00.644Z,4.40
2023-09-11T08:24:27.838Z,4.60
2023-09-11T08:26:54.870Z,3.88
2023-09-11T08:29:22.457Z,4.55
2023-09-11T08:31:49.623Z,4.18
2023-09-11T08:34:17.045Z,4.45
2023-09-11T08:36:46.057Z,4.85
2023-09-11T08:39:13.598Z,4.65
2023-09-11T08:41:41.856Z,4.10
2023-09-11T08:44:09.108Z,3.75
2023-09-11T08:46:37.648Z,3.92
2023-09-11T08:49:08.321Z,3.88
2023-09-11T08:51:40.129Z,4.03
2023-09-11T08:54:11.056Z,4.07
2023-09-11T08:56:40.699Z,4.05
2023-09-11T08:59:09.140Z,3.97
2023-09-11T09:01:36.289Z,3.97
2023-09-11T09:04:04.644Z,3.60
2023-09-11T09:06:32.376Z,4.47
2023-09-11T09:09:00.059Z,3.60
2023-09-11T09:11:27.425Z,3.67
2023-09-11T09:13:56.184Z,4.00
2023-09-11T09:16:23.222Z,4.05
2023-09-11T09:18:51.445Z,3.58
2023-09-11T09:21:20.185Z,3.67
2023-09-11T09:23:47.560Z,4.03
2023-09-11T09:26:15.871Z,4.10
2023-09-11T09:28:45.737Z,4.07
2023-09-11T09:31:22.604Z,3.42
2023-09-11T09:33:55.330Z,3.30
2023-09-11T09:36:23.708Z,3.60
2023-09-11T09:38:51.741Z,3.40
2023-09-11T09:41:22.122Z,3.47
2023-09-11T09:43:54.660Z,4.00
2023-09-11T09:46:23.635Z,3.28
2023-09-11T09:48:51.807Z,3.67
2023-09-11T09:51:19.740Z,3.33
2023-09-11T09:53:48.427Z,3.50
2023-09-11T09:56:15.903Z,3.15
2023-09-11T09:58:45.676Z,3.58
2023-09-11T10:01:15.284Z,3.83
2023-09-11T10:03:51.019Z,3.45
2023-09-11T10:06:22.728Z,3.55
2023-09-11T10:09:11.694Z,3.33
2023-09-11T10:11:39.847Z,2.85
2023-09-11T10:14:09.576Z,3.00
2023-09-11T10:16:36.936Z,3.38
2023-09-11T10:19:05.068Z,3.38
2023-09-11T10:21:33.338Z,3.50
2023-09-11T10:24:00.830Z,3.40
2023-09-11T10:26:34.719Z,3.40
2023-09-11T10:29:05.054Z,3.35
2023-09-11T10:31:44.627Z,3.35
2023-09-11T10:34:12.824Z,3.58
2023-09-11T10:36:42.563Z,3.65
2023-09-11T10:39:10.636Z,3.28
2023-09-11T10:41:37.927Z,3.47
2023-09-11T10:44:06.113Z,3.65
2023-09-11T10:46:35.162Z,3.47
2023-09-11T10:49:14.455Z,3.25
2023-09-11T10:51:41.518Z,3.92
2023-09-11T10:54:17.500Z,3.60
2023-09-11T10:56:44.822Z,3.30
2023-09-11T10:59:12.718Z,3.70
2023-09-11T11:01:39.743Z,3.30
2023-09-11T11:04:07.751Z,3.33
2023-09-11T11:06:34.978Z,3.53
2023-09-11T11:09:02.706Z,3.45
2023-09-11T11:11:32.799Z,3.88
2023-09-11T11:14:15.682Z,3.70
2023-09-11T11:17:12.148Z,3.55
2023-09-11T11:19:53.215Z,3.33
2023-09-11T11:22:31.245Z,3.60
2023-09-11T11:24:59.486Z,3.95
2023-09-11T11:27:26.898Z,3.45
2023-09-11T11:29:55.151Z,4.05
2023-09-11T11:32:22.857Z,3.53
2023-09-11T11:34:51.755Z,3.45
2023-09-11T11:37:22.998Z,3.60
2023-09-11T11:39:51.218Z,3.67
2023-09-11T11:42:18.470Z,3.50
2023-09-11T11:44:45.946Z,3.45
2023-09-11T11:47:13.216Z,3.40
2023-09-11T11:49:40.534Z,3.35
2023-09-11T11:52:07.607Z,3.63
2023-09-11T11:54:36.210Z,3.80
2023-09-11T11:57:05.294Z,3.47
2023-09-11T11:59:34.793Z,3.92
2023-09-11T12:02:02.000Z,3.72
2023-09-11T12:04:47.280Z,3.88
2023-09-11T12:07:15.572Z,3.70
2023-09-11T12:09:43.211Z,4.13
2023-09-11T12:12:10.598Z,3.67
2023-09-11T12:14:38.540Z,3.47
2023-09-11T12:17:12.450Z,3.72
2023-09-11T12:19:40.820Z,3.80
2023-09-11T12:22:10.022Z,3.65
2023-09-11T12:24:37.418Z,3.75
2023-09-11T12:27:06.468Z,3.75
2023-09-11T12:29:34.225Z,3.72
2023-09-11T12:32:01.471Z,3.60
2023-09-11T12:34:45.171Z,4.10
2023-09-11T12:37:12.219Z,4.28
2023-09-11T12:39:39.723Z,4.18
2023-09-11T12:42:06.794Z,3.42
2023-09-11T12:44:34.131Z,3.60
2023-09-11T12:47:02.254Z,4.22
2023-09-11T12:49:29.812Z,3.30
2023-09-11T12:51:56.854Z,3.90
2023-09-11T12:54:25.350Z,4.32
2023-09-11T12:56:52.489Z,4.25
2023-09-11T12:59:19.740Z,4.00
2023-09-11T13:01:46.759Z,4.00
2023-09-11T13:04:14.183Z,4.20
2023-09-11T13:06:42.335Z,3.80
2023-09-11T13:09:09.774Z,4.05
2023-09-11T13:11:36.794Z,3.90
2023-09-11T13:14:15.272Z,4.00
2023-09-11T13:16:44.234Z,3.95
2023-09-11T13:19:11.559Z,4.05
2023-09-11T13:21:38.522Z,3.67
2023-09-11T13:24:06.114Z,4.00
2023-09-11T13:26:33.242Z,3.75
2023-09-11T13:29:00.496Z,4.20
2023-09-11T13:31:28.313Z,4.18
2023-09-11T13:33:56.100Z,4.18
2023-09-11T13:36:23.354Z,4.32
2023-09-11T13:38:50.680Z,4.50
2023-09-11T13:41:17.764Z,3.65
2023-09-11T13:43:45.334Z,3.92
2023-09-11T13:46:12.810Z,4.03
2023-09-11T13:48:40.561Z,3.85
2023-09-11T13:51:08.161Z,3.72
2023-09-11T13:53:35.438Z,3.83
2023-09-11T13:56:02.536Z,3.85
2023-09-11T13:58:29.815Z,4.75
2023-09-11T14:00:56.811Z,3.25
2023-09-11T14:03:24.382Z,4.00
2023-09-11T14:05:51.830Z,3.88
2023-09-11T14:08:19.275Z,3.08
2023-09-11T14:10:46.397Z,4.15
2023-09-11T14:13:13.780Z,3.95
2023-09-11T14:15:41.278Z,3.95
2023-09-11T14:18:08.821Z,3.90
2023-09-11T14:20:35.932Z,3.53
2023-09-11T14:23:03.550Z,4.05
2023-09-11T14:25:30.480Z,3.47
2023-09-11T14:27:57.848Z,3.50
2023-09-11T14:30:25.766Z,3.30
2023-09-11T14:32:53.299Z,4.18
2023-09-11T14:35:20.602Z,4.00
2023-09-11T14:37:47.841Z,3.72
2023-09-11T14:40:14.781Z,4.35
2023-09-11T14:42:42.062Z,4.03
2023-09-11T14:45:10.242Z,4.07
2023-09-11T14:47:37.788Z,3.90
2023-09-11T14:50:08.784Z,3.42
2023-09-11T14:52:36.161Z,3.95
2023-09-11T14:55:03.354Z,4.30
2023-09-11T14:57:30.700Z,3.85
2023-09-11T14:59:57.932Z,3.80
2023-09-11T15:02:25.388Z,4.28
2023-09-11T15:04:53.016Z,3.85
2023-09-11T15:07:21.329Z,4.13
2023-09-11T15:09:49.446Z,3.67
2023-09-11T15:12:17.109Z,3.85
2023-09-11T15:14:44.990Z,4.05
2023-09-11T15:17:12.346Z,3.88
2023-09-11T15:19:39.997Z,4.22
2023-09-11T15:22:08.085Z,3.58
2023-09-11T15:24:35.906Z,4.25
2023-09-11T15:27:04.159Z,3.97
2023-09-11T15:29:31.744Z,4.10
2023-09-11T15:32:11.705Z,4.00
2023-09-11T15:34:41.937Z,3.95
2023-09-11T15:37:14.856Z,4.00
2023-09-11T15:39:42.666Z,4.43
2023-09-11T15:42:09.920Z,3.95
2023-09-11T15:44:36.994Z,3.75
2023-09-11T15:47:04.348Z,4.15
2023-09-11T15:49:31.402Z,4.65
2023-09-11T15:52:04.380Z,3.72
2023-09-11T15:54:32.018Z,4.10
2023-09-11T15:56:59.343Z,4.07
2023-09-11T15:59:26.372Z,4.15
2023-09-11T16:01:53.651Z,4.35
2023-09-11T16:04:20.702Z,4.50
2023-09-11T16:06:48.181Z,4.53
2023-09-11T16:09:15.194Z,5.90
2023-09-11T16:11:42.576Z,4.63
2023-09-11T16:14:09.598Z,4.80
2023-09-11T16:16:38.229Z,4.70
2023-09-11T16:19:05.184Z,5.05
2023-09-11T16:21:40.164Z,4.50
2023-09-11T16:24:08.921Z,4.30
2023-09-11T16:26:37.653Z,4.65
2023-09-11T16:29:04.618Z,4.22
2023-09-11T16:31:31.897Z,4.18
2023-09-11T16:33:59.175Z,4.43
2023-09-11T16:36:26.632Z,4.57
2023-09-11T16:38:53.991Z,4.32
2023-09-11T16:41:21.392Z,4.03
2023-09-11T16:43:48.352Z,4.38
2023-09-11T16:46:15.685Z,4.55
2023-09-11T16:48:43.082Z,5.00
2023-09-11T16:51:10.894Z,4.45
2023-09-11T16:53:37.851Z,4.43
2023-09-11T16:56:06.664Z,4.30
2023-09-11T16:58:33.631Z,4.55
2023-09-11T17:01:07.902Z,4.75
2023-09-11T17:03:35.060Z,4.82
2023-09-11T17:06:04.082Z,4.78
2023-09-11T17:08:31.286Z,4.28
2023-09-11T17:10:59.101Z,4.65
2023-09-11T17:13:26.110Z,5.25
2023-09-11T17:15:53.402Z,5.13
2023-09-11T17:18:20.499Z,4.60
2023-09-11T17:20:48.011Z,4.75
2023-09-11T17:23:15.170Z,5.30
2023-09-11T17:25:42.391Z,4.95
2023-09-11T17:28:11.803Z,5.05
2023-09-11T17:30:39.206Z,4.82
2023-09-11T17:33:09.841Z,5.10
2023-09-11T17:35:38.503Z,4.65
2023-09-11T17:38:06.061Z,5.00
2023-09-11T17:40:33.775Z,4.80
2023-09-11T17:43:00.944Z,5.30
2023-09-11T17:45:28.745Z,4.93
2023-09-11T17:47:56.564Z,4.47
2023-09-11T17:50:24.108Z,4.90
2023-09-11T17:52:51.190Z,6.47
2023-09-11T17:55:18.662Z,5.93
2023-09-11T17:57:45.810Z,5.05
2023-09-11T18:00:13.805Z,5.07
2023-09-11T18:02:41.255Z,5.32
2023-09-11T18:05:08.830Z,5.43
2023-09-11T18:07:36.687Z,5.60
2023-09-11T18:10:05.091Z,5.70
2023-09-11T18:12:32.389Z,6.40
2023-09-11T18:15:00.433Z,6.25
2023-09-11T18:17:27.682Z,5.90
2023-09-11T18:19:55.947Z,6.00
2023-09-11T18:22:23.494Z,5.47
2023-09-11T18:24:51.017Z,6.13
2023-09-11T18:27:17.997Z,5.05
2023-09-11T18:29:46.059Z,5.50
2023-09-11T18:32:13.261Z,5.65
2023-09-11T18:34:40.827Z,5.00
2023-09-11T18:37:07.855Z,5.30
2023-09-11T18:39:35.391Z,5.47
2023-09-11T18:42:02.788Z,5.75
2023-09-11T18:44:30.352Z,5.20
2023-09-11T18:46:57.315Z,5.13
2023-09-11T18:49:24.772Z,4.78
2023-09-11T18:51:56.855Z,5.35
2023-09-11T18:54:26.160Z,5.32
2023-09-11T18:56:55.435Z,5.40
2023-09-11T18:59:22.875Z,5.38
2023-09-11T19:01:50.378Z,5.30
2023-09-11T19:04:18.733Z,5.40
2023-09-11T19:06:45.881Z,6.05
2023-09-11T19:09:13.221Z,6.55
2023-09-11T19:11:40.246Z,5.63
2023-09-11T19:14:07.526Z,5.68
2023-09-11T19:16:34.550Z,5.53
2023-09-11T19:19:01.984Z,5.97
2023-09-11T19:21:30.279Z,6.43
2023-09-11T19:23:57.951Z,5.78
2023-09-11T19:26:25.239Z,6.05
2023-09-11T19:28:53.345Z,5.88
2023-09-11T19:31:22.695Z,6.03
2023-09-11T19:33:50.752Z,6.13
2023-09-11T19:36:18.119Z,6.45
2023-09-11T19:38:46.057Z,6.28
2023-09-11T19:41:13.440Z,6.30
2023-09-11T19:43:41.054Z,6.40
2023-09-11T19:46:08.500Z,5.78
2023-09-11T19:48:37.083Z,7.05
2023-09-11T19:51:05.221Z,6.45
2023-09-11T19:53:32.713Z,7.82
2023-09-11T19:56:00.583Z,6.55
2023-09-11T19:58:29.470Z,6.40
2023-09-11T20:00:56.730Z,6.72
2023-09-11T20:03:25.616Z,6.07
2023-09-11T20:05:55.946Z,8.48
2023-09-11T20:08:23.235Z,7.50
2023-09-11T20:10:50.210Z,6.70
2023-09-11T20:13:19.103Z,5.85
2023-09-11T20:15:46.096Z,6.85
2023-09-11T20:18:13.519Z,6.57
2023-09-11T20:20:40.517Z,5.88
2023-09-11T20:23:07.760Z,6.32
2023-09-11T20:25:35.224Z,6.20
2023-09-11T20:28:02.461Z,6.65
2023-09-11T20:30:29.536Z,6.53
2023-09-11T20:32:56.965Z,6.40
2023-09-11T20:35:23.983Z,6.13
2023-09-11T20:37:51.400Z,6.78
2023-09-11T20:40:18.390Z,6.22
2023-09-11T20:42:45.656Z,6.15
2023-09-11T20:45:12.659Z,6.53
2023-09-11T20:47:39.960Z,6.50
2023-09-11T20:50:08.782Z,6.35
2023-09-11T20:52:36.603Z,6.72
2023-09-11T20:55:05.772Z,6.45
2023-09-11T20:57:33.502Z,6.90
2023-09-11T21:00:00.902Z,7.18
2023-09-11T21:02:28.416Z,6.05
2023-09-11T21:04:56.784Z,7.20
2023-09-11T21:07:24.407Z,6.60
2023-09-11T21:09:51.850Z,6.60
2023-09-11T21:12:19.359Z,6.85
2023-09-11T21:14:46.310Z,6.68
2023-09-11T21:17:13.614Z,7.47
2023-09-11T21:19:40.875Z,7.07
2023-09-11T21:22:08.347Z,7.10
2023-09-11T21:24:35.313Z,6.80
2023-09-11T21:27:02.566Z,7.30
2023-09-11T21:29:29.609Z,6.80
2023-09-11T21:31:57.676Z,7.55
2023-09-11T21:34:24.661Z,7.18
2023-09-11T21:36:51.917Z,7.22
2023-09-11T21:39:18.863Z,7.25
2023-09-11T21:41:46.174Z,7.68
2023-09-11T21:44:13.191Z,7.53
2023-09-11T21:46:40.487Z,8.05
2023-09-11T21:49:07.585Z,7.60
2023-09-11T21:51:34.880Z,7.70
2023-09-11T21:54:13.950Z,7.72
2023-09-11T21:56:46.564Z,7.88
2023-09-11T21:59:13.701Z,7.57
2023-09-11T22:01:41.041Z,7.28
2023-09-11T22:04:08.433Z,7.72
2023-09-11T22:06:35.979Z,8.30
2023-09-11T22:09:03.162Z,7.43
2023-09-11T22:11:30.374Z,7.82
2023-09-11T22:13:57.672Z,7.20
2023-09-11T22:16:25.005Z,8.20
2023-09-11T22:18:52.091Z,8.20
2023-09-11T22:21:19.957Z,9.38
2023-09-11T22:23:47.110Z,10.90
2023-09-11T22:26:14.474Z,10.18
2023-09-11T22:28:41.405Z,7.85
2023-09-11T22:31:08.993Z,9.13
2023-09-11T22:36:03.518Z,14.05
2023-09-11T22:38:30.577Z,12.80
2023-09-11T22:40:57.858Z,10.93
2023-09-11T22:43:24.837Z,9.82
2023-09-11T22:45:52.072Z,10.85
2023-09-11T22:48:19.136Z,9.70
2023-09-11T22:50:46.450Z,8.43
2023-09-11T22:53:13.394Z,7.78
2023-09-11T22:55:40.768Z,7.85
2023-09-11T22:58:09.509Z,8.10
2023-09-11T23:00:40.918Z,7.80
2023-09-11T23:03:09.114Z,8.13
2023-09-11T23:05:37.575Z,6.93
2023-09-11T23:08:05.165Z,8.02
2023-09-11T23:10:32.742Z,8.50
2023-09-11T23:12:59.957Z,7.53
2023-09-11T23:15:27.547Z,8.10
2023-09-11T23:17:54.705Z,8.00
2023-09-11T23:20:22.091Z,7.93
2023-09-11T23:22:49.050Z,8.02
2023-09-11T23:25:16.349Z,8.80
2023-09-11T23:27:43.265Z,8.68
2023-09-11T23:30:11.391Z,8.45
2023-09-11T23:32:38.567Z,8.27
2023-09-11T23:35:06.493Z,8.52
2023-09-11T23:37:33.659Z,8.65
2023-09-11T23:40:01.000Z,8.57
2023-09-11T23:42:28.079Z,8.57
2023-09-11T23:44:55.423Z,8.70
2023-09-11T23:47:22.407Z,8.95
2023-09-11T23:49:49.676Z,9.07
2023-09-11T23:52:26.470Z,8.63
2023-09-11T23:54:55.710Z,8.82
2023-09-11T23:57:23.196Z,8.27
2023-09-11T23:59:50.672Z,9.52
